createdAt,value
2022-11-16T00:00:31.307Z,0.00
2022-11-16T00:05:25.498Z,0.00
2022-11-16T00:10:25.826Z,0.00
2022-11-16T00:15:31.822Z,0.00
2022-11-16T00:20:20.905Z,0.00
2022-11-16T00:25:26.900Z,0.00
2022-11-16T00:30:15.943Z,0.00
2022-11-16T00:35:22.037Z,0.00
2022-11-16T00:40:28.041Z,0.00
2022-11-16T00:45:17.112Z,0.00
2022-11-16T00:50:23.171Z,0.00
2022-11-16T00:55:28.901Z,0.00
2022-11-16T01:00:17.917Z,0.00
2022-11-16T01:05:24.258Z,0.00
2022-11-16T01:10:30.339Z,0.00
2022-11-16T01:15:19.292Z,0.00
2022-11-16T01:20:25.375Z,0.00
2022-11-16T01:25:31.448Z,0.00
2022-11-16T01:30:20.463Z,0.00
2022-11-16T01:35:26.551Z,0.00
2022-11-16T01:40:32.604Z,0.00
2022-11-16T01:45:21.549Z,0.00
2022-11-16T01:50:27.747Z,0.00
2022-11-16T01:55:16.022Z,0.00
2022-11-16T02:00:22.288Z,0.00
2022-11-16T02:05:28.384Z,0.00
2022-11-16T02:10:17.485Z,0.00
2022-11-16T02:15:23.642Z,0.00
2022-11-16T02:20:29.617Z,0.00
2022-11-16T02:25:18.610Z,0.00
2022-11-16T02:30:24.632Z,0.00
2022-11-16T02:35:30.766Z,0.00
2022-11-16T02:40:19.864Z,0.00
2022-11-16T02:45:25.877Z,0.00
2022-11-16T02:50:31.935Z,0.00
2022-11-16T02:55:20.604Z,0.00
2022-11-16T03:00:26.786Z,0.00
2022-11-16T03:05:16.094Z,0.00
2022-11-16T03:10:22.099Z,0.00
2022-11-16T03:15:29.084Z,0.00
2022-11-16T03:20:17.235Z,0.00
2022-11-16T03:25:23.284Z,0.00
2022-11-16T03:30:29.335Z,0.00
2022-11-16T03:35:18.347Z,0.00
2022-11-16T03:40:24.466Z,0.00
2022-11-16T03:45:30.501Z,0.00
2022-11-16T03:50:19.492Z,0.00
2022-11-16T03:55:25.253Z,0.00
2022-11-16T04:00:31.599Z,0.00
2022-11-16T04:05:19.641Z,0.00
2022-11-16T04:10:25.620Z,0.00
2022-11-16T04:15:31.879Z,0.00
2022-11-16T04:20:20.921Z,0.00
2022-11-16T04:25:26.819Z,0.00
2022-11-16T04:30:15.927Z,0.00
2022-11-16T04:35:22.025Z,0.00
2022-11-16T04:40:28.055Z,0.00
2022-11-16T04:45:17.019Z,0.00
2022-11-16T04:50:23.162Z,0.00
2022-11-16T04:55:28.958Z,0.00
2022-11-16T05:00:18.110Z,0.00
2022-11-16T05:05:24.436Z,0.00
2022-11-16T05:10:30.457Z,0.00
2022-11-16T05:15:19.468Z,0.00
2022-11-16T05:20:25.710Z,0.00
2022-11-16T05:25:36.438Z,0.00
2022-11-16T05:30:20.581Z,0.00
2022-11-16T05:35:26.721Z,0.00
2022-11-16T05:40:32.821Z,0.00
2022-11-16T05:45:21.845Z,0.00
2022-11-16T05:50:27.849Z,0.00
2022-11-16T05:55:16.630Z,0.00
2022-11-16T06:00:22.820Z,0.00
2022-11-16T06:05:29.049Z,0.00
2022-11-16T06:10:18.036Z,0.00
2022-11-16T06:15:24.171Z,0.00
2022-11-16T06:20:30.329Z,0.00
2022-11-16T06:25:19.208Z,0.00
2022-11-16T06:30:25.345Z,0.04
2022-11-16T06:35:31.372Z,0.43
2022-11-16T06:40:20.510Z,1.94
2022-11-16T06:45:26.457Z,3.87
2022-11-16T06:50:32.608Z,5.15
2022-11-16T06:55:21.204Z,6.25
2022-11-16T07:00:27.393Z,8.02
2022-11-16T07:05:15.750Z,10.53
2022-11-16T07:10:21.792Z,14.65
2022-11-16T07:20:17.047Z,16.58
2022-11-16T07:25:23.030Z,19.29
2022-11-16T07:30:29.033Z,18.34
2022-11-16T07:35:17.965Z,13.44
2022-11-16T07:40:24.156Z,13.63
2022-11-16T07:45:30.061Z,14.33
2022-11-16T07:50:19.225Z,16.61
2022-11-16T07:55:24.866Z,21.03
2022-11-16T08:00:31.008Z,24.11
2022-11-16T08:05:20.277Z,25.44
2022-11-16T08:10:26.519Z,27.56
2022-11-16T08:15:32.433Z,30.97
2022-11-16T08:20:21.480Z,31.20
2022-11-16T08:25:27.705Z,26.95
2022-11-16T08:30:16.521Z,24.57
2022-11-16T08:35:22.737Z,22.69
2022-11-16T08:40:28.752Z,23.55
2022-11-16T08:45:17.736Z,29.67
2022-11-16T08:50:23.779Z,30.71
2022-11-16T08:55:29.656Z,26.93
2022-11-16T09:00:18.684Z,25.58
2022-11-16T09:05:24.098Z,24.71
2022-11-16T09:10:30.200Z,23.70
2022-11-16T09:15:19.027Z,25.00
2022-11-16T09:20:25.267Z,28.62
2022-11-16T09:25:31.258Z,22.40
2022-11-16T09:30:20.225Z,16.22
2022-11-16T09:35:26.327Z,19.82
2022-11-16T09:40:32.356Z,27.94
2022-11-16T09:45:21.355Z,33.21
2022-11-16T09:50:27.481Z,36.67
2022-11-16T09:55:16.352Z,36.92
2022-11-16T10:00:22.625Z,41.78
2022-11-16T10:05:27.670Z,55.67
2022-11-16T10:10:17.480Z,58.46
2022-11-16T10:15:22.981Z,49.90
2022-11-16T10:20:30.904Z,48.45
2022-11-16T10:25:17.875Z,51.73
2022-11-16T10:30:23.968Z,59.56
2022-11-16T10:35:30.062Z,72.57
2022-11-16T10:40:19.167Z,76.10
2022-11-16T10:45:25.103Z,70.06
2022-11-16T10:50:31.268Z,66.93
2022-11-16T10:55:19.972Z,67.73
2022-11-16T11:00:26.052Z,74.75
2022-11-16T11:05:32.523Z,63.95
2022-11-16T11:10:21.375Z,63.49
2022-11-16T11:15:27.628Z,59.85
2022-11-16T11:20:16.888Z,48.61
2022-11-16T11:25:22.555Z,51.15
2022-11-16T11:30:28.677Z,43.48
2022-11-16T11:35:17.727Z,56.06
2022-11-16T11:40:23.814Z,62.41
2022-11-16T11:45:29.853Z,62.57
2022-11-16T11:50:18.984Z,69.87
2022-11-16T11:55:24.664Z,73.23
2022-11-16T12:00:30.813Z,45.64
2022-11-16T12:05:20.137Z,47.76
2022-11-16T12:10:26.089Z,47.97
2022-11-16T12:15:32.263Z,49.14
2022-11-16T12:20:21.406Z,58.16
2022-11-16T12:25:27.274Z,67.84
2022-11-16T12:30:16.378Z,56.59
2022-11-16T12:35:22.533Z,55.49
2022-11-16T12:40:28.486Z,57.56
2022-11-16T12:45:17.482Z,41.95
2022-11-16T12:50:23.599Z,37.09
2022-11-16T12:55:29.359Z,33.91
2022-11-16T13:00:18.340Z,34.93
2022-11-16T13:05:24.159Z,48.11
2022-11-16T13:10:29.709Z,74.72
2022-11-16T13:15:18.785Z,73.64
2022-11-16T13:20:25.846Z,58.70
2022-11-16T13:25:30.919Z,37.24
2022-11-16T13:30:19.870Z,29.55
2022-11-16T13:35:25.953Z,33.34
2022-11-16T13:40:18.554Z,40.04
2022-11-16T13:45:21.065Z,47.64
2022-11-16T13:50:27.136Z,65.59
2022-11-16T13:55:15.763Z,71.86
2022-11-16T14:00:22.349Z,79.85
2022-11-16T14:05:28.207Z,72.82
2022-11-16T14:10:18.755Z,59.75
2022-11-16T14:15:23.340Z,61.27
2022-11-16T14:20:29.495Z,48.91
2022-11-16T14:25:18.408Z,43.46
2022-11-16T14:30:24.549Z,31.11
2022-11-16T14:35:30.599Z,22.00
2022-11-16T14:40:19.680Z,18.18
2022-11-16T14:45:25.690Z,20.88
2022-11-16T14:50:35.416Z,20.44
2022-11-16T14:55:20.464Z,18.44
2022-11-16T15:00:26.565Z,12.74
2022-11-16T15:05:31.822Z,7.88
2022-11-16T15:10:20.880Z,4.68
2022-11-16T15:15:26.907Z,2.39
2022-11-16T15:20:16.019Z,0.88
2022-11-16T15:25:22.150Z,0.30
2022-11-16T15:30:28.226Z,0.19
2022-11-16T15:35:17.185Z,0.05
2022-11-16T15:40:23.249Z,0.00
2022-11-16T15:45:29.286Z,0.00
2022-11-16T15:50:18.372Z,0.00
2022-11-16T15:55:24.152Z,0.00
2022-11-16T16:00:30.226Z,0.00
2022-11-16T16:05:23.838Z,0.00
2022-11-16T16:10:25.539Z,0.00
2022-11-16T16:15:31.505Z,0.00
2022-11-16T16:20:21.001Z,0.00
2022-11-16T16:25:26.653Z,0.00
2022-11-16T16:30:33.632Z,0.00
2022-11-16T16:35:21.747Z,0.00
2022-11-16T16:40:42.450Z,0.00
2022-11-16T16:45:16.816Z,0.00
2022-11-16T16:50:23.132Z,0.00
2022-11-16T16:55:31.669Z,0.00
2022-11-16T17:00:17.918Z,0.00
2022-11-16T17:05:24.203Z,0.00
2022-11-16T17:10:30.174Z,0.00
2022-11-16T17:15:19.706Z,0.00
2022-11-16T17:20:25.217Z,0.00
2022-11-16T17:25:31.281Z,0.00
2022-11-16T17:30:20.296Z,0.00
2022-11-16T17:35:26.462Z,0.00
2022-11-16T17:40:32.383Z,0.00
2022-11-16T17:45:21.453Z,0.00
2022-11-16T17:50:27.554Z,0.00
2022-11-16T17:55:16.396Z,0.00
2022-11-16T18:00:22.557Z,0.00
2022-11-16T18:05:27.756Z,0.00
2022-11-16T18:10:19.372Z,0.00
2022-11-16T18:15:28.604Z,0.00
2022-11-16T18:20:28.946Z,0.00
2022-11-16T18:25:17.935Z,0.00
2022-11-16T18:30:24.054Z,0.00
2022-11-16T18:35:30.208Z,0.00
2022-11-16T18:40:19.181Z,0.00
2022-11-16T18:45:25.174Z,0.00
2022-11-16T18:50:31.307Z,0.00
2022-11-16T18:55:20.070Z,0.00
2022-11-16T19:00:26.109Z,0.00
2022-11-16T19:05:32.441Z,0.00
2022-11-16T19:10:21.448Z,0.00
2022-11-16T19:15:27.523Z,0.00
2022-11-16T19:20:16.793Z,0.00
2022-11-16T19:25:22.650Z,0.00
2022-11-16T19:30:28.815Z,0.00
2022-11-16T19:35:17.741Z,0.00
2022-11-16T19:40:25.244Z,0.00
2022-11-16T19:45:29.913Z,0.00
2022-11-16T19:50:29.268Z,0.00
2022-11-16T19:55:18.266Z,0.00
2022-11-16T20:00:24.378Z,0.00
2022-11-16T20:05:29.646Z,0.00
2022-11-16T20:10:18.750Z,0.00
2022-11-16T20:15:24.719Z,0.00
2022-11-16T20:20:19.021Z,0.00
2022-11-16T20:25:19.915Z,0.00
2022-11-16T20:30:26.112Z,0.00
2022-11-16T20:35:31.990Z,0.00
2022-11-16T20:40:21.185Z,0.00
2022-11-16T20:45:27.120Z,0.00
2022-11-16T20:50:16.437Z,0.00
2022-11-16T20:55:22.502Z,0.00
2022-11-16T21:00:28.652Z,0.00
2022-11-16T21:05:17.209Z,0.00
2022-11-16T21:10:23.259Z,0.00
2022-11-16T21:15:29.431Z,0.00
2022-11-16T21:20:27.545Z,0.00
2022-11-16T21:25:24.862Z,0.00
2022-11-16T21:30:30.479Z,0.00
2022-11-16T21:35:19.583Z,0.00
2022-11-16T21:40:25.789Z,0.00
2022-11-16T21:45:31.676Z,0.00
2022-11-16T21:50:36.035Z,0.00
2022-11-16T21:55:26.767Z,0.00
2022-11-16T22:00:18.260Z,0.00
2022-11-16T22:05:24.540Z,0.00
2022-11-16T22:10:30.882Z,0.00
2022-11-16T22:15:19.650Z,0.00
2022-11-16T22:20:25.871Z,0.00
2022-11-16T22:25:32.293Z,0.00
2022-11-16T22:30:20.915Z,0.00
2022-11-16T22:35:27.030Z,0.00
2022-11-16T22:40:33.147Z,0.00
2022-11-16T22:45:21.960Z,0.00
2022-11-16T22:50:27.300Z,0.00
2022-11-16T22:55:16.317Z,0.00
2022-11-16T23:00:22.492Z,0.00
2022-11-16T23:05:28.792Z,0.00
2022-11-16T23:10:17.660Z,0.00
2022-11-16T23:15:23.827Z,0.00
2022-11-16T23:20:29.821Z,0.00
2022-11-16T23:25:18.841Z,0.00
2022-11-16T23:30:24.932Z,0.00
2022-11-16T23:35:30.909Z,0.00
2022-11-16T23:40:20.091Z,0.00
2022-11-16T23:45:26.158Z,0.00
2022-11-16T23:50:31.964Z,0.00
2022-11-16T23:55:20.653Z,0.00
